Time;durP1;ratioP1;P1;durP2;ratioP2;P2;SDS_P1;SDS_P2;PMS_P1;PMS_P2;Temp;Humidity;BMP_temperature;BMP_pressure;BME280_temperature;BME280_humidity;BME280_pressure;Samples;Min_cycle;Max_cycle;Signal;HPM_P1;HPM_P2
2022/10/20 00:01:14;;;;;;;0.82;0.30;;;;;;;4.22;88.42;102217.34;5115386;28;20035;-71
2022/10/20 00:03:40;;;;;;;4.45;0.90;;;;;;;4.26;88.30;102226.97;5115414;28;20024;-70
2022/10/20 00:06:18;;;;;;;1.60;0.30;;;;;;;4.13;88.38;102209.59;5097154;28;20023;-68
2022/10/20 00:08:44;;;;;;;2.70;0.90;;;;;;;4.21;88.28;102207.59;5096940;28;20510;-69
2022/10/20 00:11:13;;;;;;;0.98;0.50;;;;;;;4.15;88.86;102205.09;5096570;28;20039;-68
2022/10/20 00:13:40;;;;;;;1.98;0.32;;;;;;;4.07;88.74;102202.69;5096893;28;20031;-70
2022/10/20 00:16:07;;;;;;;0.77;0.32;;;;;;;4.02;89.11;102217.91;5097043;28;20063;-70
2022/10/20 00:18:32;;;;;;;1.80;0.40;;;;;;;4.07;89.52;102204.47;5096870;28;20057;-70
2022/10/20 00:20:58;;;;;;;0.40;0.10;;;;;;;4.11;89.16;102208.78;5115271;28;20492;-71
2022/10/20 00:23:24;;;;;;;0.57;0.30;;;;;;;4.04;88.95;102205.44;5114677;28;20054;-70
2022/10/20 00:26:01;;;;;;;2.78;0.30;;;;;;;4.14;89.01;102206.91;5115160;28;20042;-70
2022/10/20 00:28:26;;;;;;;1.05;0.30;;;;;;;4.10;89.00;102205.25;5114985;28;20400;-72
2022/10/20 00:30:55;;;;;;;1.73;0.32;;;;;;;4.08;89.01;102208.88;5115296;28;20040;-71
2022/10/20 00:33:21;;;;;;;0.57;0.40;;;;;;;4.04;88.33;102210.78;5115091;28;20034;-68
2022/10/20 00:35:47;;;;;;;1.42;0.30;;;;;;;3.99;88.56;102223.31;5114949;28;20057;-70
2022/10/20 00:38:12;;;;;;;1.85;0.10;;;;;;;4.03;88.66;102219.69;5096460;28;20161;-69
2022/10/20 00:40:38;;;;;;;0.40;0.30;;;;;;;4.04;88.56;102220.56;5114584;28;20396;-70
2022/10/20 00:43:05;;;;;;;1.35;0.20;;;;;;;4.03;88.59;102208.13;5114505;28;20384;-71
2022/10/20 00:45:31;;;;;;;1.38;0.10;;;;;;;4.03;88.72;102208.13;5114644;28;20415;-70
2022/10/20 00:48:04;;;;;;;0.63;0.15;;;;;;;4.00;88.32;102192.25;5114594;28;20031;-70
2022/10/20 00:50:47;;;;;;;0.47;0.30;;;;;;;4.02;88.51;102193.09;5096153;28;20047;-69
2022/10/20 00:53:15;;;;;;;3.33;0.98;;;;;;;4.05;88.41;102195.69;5095762;28;20039;-69
2022/10/20 00:55:44;;;;;;;3.35;0.95;;;;;;;4.05;87.91;102201.00;5096116;28;20038;-70
2022/10/20 00:58:11;;;;;;;2.03;0.93;;;;;;;4.02;88.55;102209.06;5088131;28;20459;-68
2022/10/20 01:00:39;;;;;;;1.83;0.32;;;;;;;3.98;89.29;102215.38;5072245;28;20036;-70
2022/10/20 01:03:07;;;;;;;0.70;0.20;;;;;;;3.95;89.30;102212.81;5073516;28;20501;-69
2022/10/20 01:05:32;;;;;;;0.60;0.30;;;;;;;3.95;89.20;102212.81;5073708;28;20031;-70
2022/10/20 01:08:00;;;;;;;1.15;0.10;;;;;;;3.98;89.26;102210.06;5072229;28;20036;-70
2022/10/20 01:10:35;;;;;;;1.15;0.20;;;;;;;4.00;89.35;102202.91;5073708;28;20021;-69
2022/10/20 01:13:10;;;;;;;;;;;;;;;3.96;89.00;102210.13;5072533;28;20508;-69
2022/10/20 01:15:50;;;;;;;1.67;0.20;;;;;;;3.88;89.93;102215.69;5072176;28;19912;-70
2022/10/20 01:18:21;;;;;;;0.28;0.08;;;;;;;3.89;90.02;102216.53;5071831;28;20039;-70
2022/10/20 01:21:20;;;;;;;0.63;0.40;;;;;;;3.84;89.57;102215.78;5072113;28;20482;-69
2022/10/20 01:24:00;;;;;;;1.70;0.30;;;;;;;3.74;89.88;102215.19;5071791;28;20056;-69
2022/10/20 01:27:02;;;;;;;1.85;0.28;;;;;;;3.76;89.61;102210.69;5073178;28;20040;-69
2022/10/20 01:29:36;;;;;;;1.30;0.25;;;;;;;3.79;90.13;102210.59;5071693;28;20040;-70
2022/10/20 01:32:19;;;;;;;1.60;0.50;;;;;;;3.79;89.90;102202.63;5073130;28;20028;-71
2022/10/20 01:34:58;;;;;;;2.17;0.40;;;;;;;3.70;89.87;102205.56;5070873;28;20141;-69
2022/10/20 01:38:02;;;;;;;0.88;0.35;;;;;;;3.69;90.43;102214.44;5071701;28;20029;-71
2022/10/20 01:40:49;;;;;;;1.02;0.40;;;;;;;3.67;90.43;102213.63;5071625;28;20498;-71
2022/10/20 01:43:20;;;;;;;1.80;0.43;;;;;;;3.77;91.07;102207.13;5072300;28;20064;-68
2022/10/20 01:45:48;;;;;;;1.15;0.47;;;;;;;3.81;90.82;102198.13;5073043;28;20530;-70
2022/10/20 01:48:18;;;;;;;2.55;0.32;;;;;;;3.75;91.08;102208.97;5072826;28;20063;-69
2022/10/20 01:50:46;;;;;;;1.25;0.20;;;;;;;3.63;91.60;102203.97;5071399;28;20123;-69
2022/10/20 01:53:11;;;;;;;0.75;0.32;;;;;;;3.64;91.98;102203.06;5072968;28;20107;-70
2022/10/20 01:55:38;;;;;;;3.47;0.30;;;;;;;3.63;92.35;102190.69;5071201;28;20123;-68
2022/10/20 01:58:41;;;;;;;2.83;0.43;;;;;;;3.65;92.61;102202.16;5079334;28;20052;-69
2022/10/20 02:01:39;;;;;;;0.93;0.28;;;;;;;3.58;92.45;102188.16;5077478;28;20093;-71
2022/10/20 02:04:07;;;;;;;9.45;0.65;;;;;;;3.72;92.20;102193.09;5094577;28;20039;-70
2022/10/20 02:06:51;;;;;;;0.65;0.30;;;;;;;3.66;92.75;102198.56;5113516;28;20046;-70
2022/10/20 02:09:34;;;;;;;0.73;0.10;;;;;;;3.68;92.24;102196.72;5112857;28;20038;-70
2022/10/20 02:11:59;;;;;;;0.90;0.30;;;;;;;3.65;92.15;102196.81;5094506;28;20365;-68
2022/10/20 02:14:26;;;;;;;0.63;0.25;;;;;;;3.52;93.08;102196.28;5094502;28;20035;-69
2022/10/20 02:16:57;;;;;;;1.25;0.22;;;;;;;3.59;93.47;102194.34;5112659;28;20465;-69
2022/10/20 02:19:25;;;;;;;1.17;0.38;;;;;;;3.58;93.04;102189.94;5113224;28;20376;-71
2022/10/20 02:21:53;;;;;;;0.68;0.20;;;;;;;3.51;93.32;102189.22;5094498;28;20027;-70
2022/10/20 02:24:22;;;;;;;2.03;0.50;;;;;;;3.48;93.17;102193.78;5094629;28;20020;-70
2022/10/20 02:26:50;;;;;;;0.57;0.20;;;;;;;3.47;93.81;102197.34;5112481;28;20511;-71
2022/10/20 02:29:21;;;;;;;0.85;0.38;;;;;;;3.37;94.42;102201.19;5112651;28;20039;-71
2022/10/20 02:31:47;;;;;;;2.72;0.17;;;;;;;3.32;94.50;102195.97;5094498;28;20031;-71
2022/10/20 02:34:13;;;;;;;4.22;0.63;;;;;;;3.33;94.14;102198.59;5112678;28;20032;-69
2022/10/20 02:36:41;;;;;;;0.63;0.20;;;;;;;3.28;94.89;102189.88;5094297;28;20031;-70
2022/10/20 02:39:08;;;;;;;0.82;0.17;;;;;;;3.29;94.34;102182.78;5112386;28;20392;-71
2022/10/20 02:41:33;;;;;;;2.13;0.20;;;;;;;3.19;94.75;102182.16;5094064;28;20106;-69
2022/10/20 02:43:59;;;;;;;2.38;0.30;;;;;;;3.21;95.71;102185.66;5094427;28;20127;-69
2022/10/20 02:46:25;;;;;;;2.72;0.30;;;;;;;3.28;94.98;102191.66;5112580;28;20073;-68
2022/10/20 02:48:51;;;;;;;2.28;0.30;;;;;;;3.37;95.12;102185.25;5094529;28;20031;-70
2022/10/20 02:51:16;;;;;;;0.80;0.35;;;;;;;3.31;94.57;102194.22;5094203;28;20506;-69
2022/10/20 02:53:43;;;;;;;1.08;0.32;;;;;;;3.27;95.05;102196.13;5112739;28;20052;-72
2022/10/20 02:56:09;;;;;;;2.15;0.30;;;;;;;3.11;94.86;102181.50;5112416;28;20038;-69
2022/10/20 02:58:34;;;;;;;2.30;0.40;;;;;;;3.06;95.97;102179.88;5112375;28;20125;-71
2022/10/20 03:01:00;;;;;;;1.20;0.30;;;;;;;3.13;95.42;102187.63;5112305;28;20061;-70
2022/10/20 03:03:26;;;;;;;0.52;0.20;;;;;;;3.16;95.60;102182.22;5112550;28;20026;-70
2022/10/20 03:05:51;;;;;;;4.00;0.47;;;;;;;3.14;95.71;102181.41;5094019;28;20126;-72
2022/10/20 03:08:17;;;;;;;1.85;0.40;;;;;;;3.12;95.25;102190.34;5112169;28;20042;-71
2022/10/20 03:10:43;;;;;;;4.32;0.40;;;;;;;3.07;95.63;102186.94;5112450;28;20059;-69
2022/10/20 03:13:10;;;;;;;1.00;0.40;;;;;;;2.94;95.70;102181.94;5094016;28;20048;-71
2022/10/20 03:15:36;;;;;;;1.00;0.20;;;;;;;3.02;96.10;102184.38;5112252;28;20523;-69
2022/10/20 03:18:02;;;;;;;1.33;0.30;;;;;;;3.05;96.22;102184.31;5112158;28;20032;-70
2022/10/20 03:20:28;;;;;;;0.30;0.20;;;;;;;3.09;95.82;102182.44;5093938;28;20402;-69
2022/10/20 03:22:54;;;;;;;0.70;0.30;;;;;;;3.08;96.24;102183.34;5113010;28;20076;-70
2022/10/20 03:25:19;;;;;;;0.73;0.30;;;;;;;3.05;96.39;102179.00;5093774;28;20122;-71
2022/10/20 03:27:45;;;;;;;2.33;0.32;;;;;;;3.09;96.68;102172.69;5112436;28;20024;-70
2022/10/20 03:30:10;;;;;;;1.70;0.50;;;;;;;2.99;97.19;102173.81;5093947;28;20028;-70
2022/10/20 03:32:36;;;;;;;2.28;0.30;;;;;;;2.93;97.05;102179.31;5093943;28;20028;-69
2022/10/20 03:35:02;;;;;;;2.22;0.50;;;;;;;2.98;97.18;102177.41;5093691;28;20028;-68
2022/10/20 03:37:27;;;;;;;3.53;0.60;;;;;;;3.07;97.41;102182.50;5111977;28;20073;-70
2022/10/20 03:39:53;;;;;;;1.23;0.22;;;;;;;3.13;96.83;102182.31;5094055;28;20027;-69
2022/10/20 03:42:18;;;;;;;2.33;0.60;;;;;;;3.05;96.66;102179.00;5093808;28;20028;-69
2022/10/20 03:44:44;;;;;;;2.00;0.45;;;;;;;3.13;96.63;102182.31;5112087;28;20491;-68
2022/10/20 03:47:11;;;;;;;0.45;0.15;;;;;;;3.17;96.05;102189.28;5093487;28;20392;-68
2022/10/20 03:49:37;;;;;;;3.60;0.30;;;;;;;3.14;95.93;102194.69;5093607;28;20488;-69
2022/10/20 03:52:03;;;;;;;2.25;0.40;;;;;;;3.13;96.33;102198.25;5093316;28;20038;-69
2022/10/20 03:54:29;;;;;;;0.98;0.25;;;;;;;3.12;96.60;102200.97;5112036;28;20034;-68
2022/10/20 03:56:55;;;;;;;3.72;0.40;;;;;;;3.05;97.31;102202.91;5112223;28;20057;-67
2022/10/20 03:59:21;;;;;;;3.78;0.98;;;;;;;3.04;96.81;102206.50;5114570;28;20122;-69
2022/10/20 04:01:48;;;;;;;2.38;0.30;;;;;;;3.12;96.60;102204.50;5115625;28;20108;-68
2022/10/20 04:04:14;;;;;;;3.78;0.32;;;;;;;3.11;96.12;102208.06;5096907;28;20027;-70
2022/10/20 04:06:39;;;;;;;1.38;0.60;;;;;;;3.13;95.76;102219.53;5115113;28;20516;-69
2022/10/20 04:09:05;;;;;;;1.27;0.30;;;;;;;3.16;94.77;102213.25;5096735;28;20032;-69
2022/10/20 04:11:32;;;;;;;0.55;0.20;;;;;;;3.14;94.10;102210.63;5115407;28;20027;-69
2022/10/20 04:13:57;;;;;;;0.98;0.40;;;;;;;3.12;93.39;102207.16;5097252;28;20403;-70
2022/10/20 04:16:23;;;;;;;2.33;0.47;;;;;;;3.07;92.59;102209.06;5096540;28;20124;-70
2022/10/20 04:18:51;;;;;;;3.58;0.57;;;;;;;3.09;91.81;102206.38;5096521;28;20026;-69
2022/10/20 04:21:16;;;;;;;3.38;0.40;;;;;;;3.12;91.27;102200.97;5096320;28;20035;-69
2022/10/20 04:23:42;;;;;;;2.15;0.43;;;;;;;3.10;90.46;102208.97;5096611;28;20085;-70
2022/10/20 04:26:10;;;;;;;6.68;0.85;;;;;;;3.08;90.58;102202.84;5114983;28;20361;-69
2022/10/20 04:28:35;;;;;;;1.02;0.45;;;;;;;3.03;90.43;102206.53;5114665;28;20020;-69
2022/10/20 04:31:01;;;;;;;0.52;0.17;;;;;;;3.04;90.08;102209.16;5096206;28;20023;-69
2022/10/20 04:33:27;;;;;;;0.93;0.17;;;;;;;3.01;89.78;102199.44;5114527;28;20053;-68
2022/10/20 04:35:59;;;;;;;1.20;0.28;;;;;;;2.99;89.70;102208.38;5114371;28;20447;-68
2022/10/20 04:38:25;;;;;;;3.75;0.20;;;;;;;2.96;89.04;102205.81;5114684;28;20085;-69
2022/10/20 04:40:55;;;;;;;2.10;0.40;;;;;;;3.01;88.76;102203.88;5114720;28;20027;-68
2022/10/20 04:43:21;;;;;;;3.22;0.40;;;;;;;2.92;88.74;102198.81;5114036;28;20026;-70
2022/10/20 04:45:47;;;;;;;1.52;0.40;;;;;;;3.01;88.50;102202.09;5095795;28;20055;-69
2022/10/20 04:48:13;;;;;;;1.55;0.40;;;;;;;2.96;87.70;102195.16;5113912;28;20153;-70
2022/10/20 04:50:39;;;;;;;0.22;0.10;;;;;;;2.93;87.83;102195.25;5113565;28;20085;-69
2022/10/20 04:53:04;;;;;;;0.75;0.10;;;;;;;3.00;88.23;102204.81;5113766;28;20042;-69
2022/10/20 04:55:30;;;;;;;0.85;0.25;;;;;;;2.96;88.05;102200.47;5114016;28;20275;-69
2022/10/20 04:57:55;;;;;;;3.65;0.60;;;;;;;2.88;88.09;102192.72;5113788;28;20084;-69
2022/10/20 05:00:21;;;;;;;1.77;0.30;;;;;;;2.90;87.78;102198.00;5095202;28;20016;-69
2022/10/20 05:02:46;;;;;;;2.33;0.50;;;;;;;2.93;87.74;102189.94;5095013;28;20498;-69
2022/10/20 05:05:14;;;;;;;3.95;0.63;;;;;;;2.86;88.09;102191.91;5113903;28;20055;-70
2022/10/20 05:07:39;;;;;;;2.10;0.52;;;;;;;2.98;87.64;102194.22;5095478;28;20039;-69
2022/10/20 05:10:05;;;;;;;3.03;0.50;;;;;;;2.95;87.56;102204.06;5093920;28;20030;-69
2022/10/20 05:12:31;;;;;;;1.33;0.45;;;;;;;2.94;87.67;102197.88;5113341;28;20039;-68
2022/10/20 05:14:56;;;;;;;2.78;0.40;;;;;;;2.95;87.69;102196.09;5094870;28;20028;-73
2022/10/20 05:17:22;;;;;;;3.17;0.30;;;;;;;2.91;87.83;102203.28;5113282;28;20028;-69
2022/10/20 05:19:48;;;;;;;3.75;0.68;;;;;;;2.92;87.83;102204.13;5113121;28;20475;-69
2022/10/20 05:22:13;;;;;;;2.53;0.43;;;;;;;2.95;87.46;102206.72;5113164;28;20031;-69
2022/10/20 05:24:39;;;;;;;2.78;0.22;;;;;;;2.89;87.62;102206.88;5113342;28;20036;-69
2022/10/20 05:27:04;;;;;;;3.38;0.45;;;;;;;2.89;88.13;102210.41;5112825;28;20063;-68
2022/10/20 05:29:30;;;;;;;5.20;0.50;;;;;;;2.88;88.27;102213.97;5094687;28;20464;-68
2022/10/20 05:31:56;;;;;;;2.60;0.85;;;;;;;2.80;88.10;102204.44;5112883;28;20051;-68
2022/10/20 05:34:21;;;;;;;1.88;0.50;;;;;;;2.90;88.54;102217.47;5111940;28;20498;-68
2022/10/20 05:36:47;;;;;;;4.72;0.70;;;;;;;2.89;87.99;102215.72;5094534;28;20035;-68
2022/10/20 05:39:12;;;;;;;0.75;0.17;;;;;;;2.95;87.82;102209.38;5112744;28;20092;-69
2022/10/20 05:41:38;;;;;;;2.75;0.43;;;;;;;2.89;87.90;102218.38;5094035;28;20034;-69
2022/10/20 05:44:07;;;;;;;2.80;0.57;;;;;;;2.98;87.97;102214.59;5093953;28;20050;-69
2022/10/20 05:46:37;;;;;;;0.85;0.32;;;;;;;2.98;87.91;102214.59;5112567;28;20032;-69
2022/10/20 05:49:03;;;;;;;8.15;0.60;;;;;;;2.99;88.86;102205.72;5093144;28;20397;-68
2022/10/20 05:51:31;;;;;;;4.07;0.65;;;;;;;2.95;89.00;102209.38;5094017;28;20027;-68
2022/10/20 05:53:57;;;;;;;11.05;0.60;;;;;;;2.85;89.15;102207.84;5112089;28;20039;-68
2022/10/20 05:56:25;;;;;;;6.43;0.85;;;;;;;2.86;90.14;102209.63;5111859;28;20116;-68
2022/10/20 05:58:51;;;;;;;2.92;0.90;;;;;;;2.93;90.15;102205.88;5079959;28;20389;-69
2022/10/20 06:01:23;;;;;;;3.08;0.93;;;;;;;2.91;90.08;102202.41;5071706;28;20040;-68
2022/10/20 06:03:51;;;;;;;1.70;0.60;;;;;;;2.98;90.00;102204.84;5070673;28;20028;-68
2022/10/20 06:06:18;;;;;;;7.78;0.90;;;;;;;3.00;89.91;102202.16;5070036;28;20501;-70
2022/10/20 06:08:44;;;;;;;1.48;0.35;;;;;;;3.02;89.51;102197.66;5070055;28;20056;-68
2022/10/20 06:11:11;;;;;;;2.05;0.30;;;;;;;3.06;89.03;102207.31;5070922;28;20066;-68
2022/10/20 06:13:37;;;;;;;2.05;0.60;;;;;;;3.01;89.05;102214.50;5070804;28;20029;-70
2022/10/20 06:16:09;;;;;;;3.78;0.60;;;;;;;3.09;89.18;102201.91;5069688;28;20112;-69
2022/10/20 06:18:37;;;;;;;3.15;0.93;;;;;;;3.19;88.80;102208.75;5069109;28;20028;-70
2022/10/20 06:21:10;;;;;;;9.43;4.80;;;;;;;3.17;88.78;102207.88;5068423;28;20426;-68
2022/10/20 06:23:35;;;;;;;1.88;0.60;;;;;;;3.21;88.53;102201.59;5070238;28;20067;-68
2022/10/20 06:26:08;;;;;;;0.90;0.70;;;;;;;3.27;88.54;102214.72;5071707;28;20048;-68
2022/10/20 06:28:35;;;;;;;2.67;0.68;;;;;;;3.12;88.80;102207.16;5070509;28;20430;-70
2022/10/20 06:31:10;;;;;;;1.20;0.40;;;;;;;3.17;88.81;102221.19;5070595;28;20028;-68
2022/10/20 06:33:35;;;;;;;1.98;0.40;;;;;;;3.20;88.69;102218.47;5070946;28;20044;-70
2022/10/20 06:36:01;;;;;;;1.60;0.70;;;;;;;3.18;89.01;102222.91;5071167;28;20143;-68
2022/10/20 06:38:27;;;;;;;4.07;0.75;;;;;;;3.19;88.50;102219.38;5070124;28;20112;-69
2022/10/20 06:40:53;;;;;;;3.28;0.85;;;;;;;3.29;88.49;102223.53;5071333;28;20050;-68
2022/10/20 06:43:19;;;;;;;5.72;0.35;;;;;;;3.36;87.81;102236.63;5069016;28;20457;-69
2022/10/20 06:45:53;;;;;;;3.42;0.50;;;;;;;3.38;87.19;102234.84;5070697;28;20512;-67
2022/10/20 06:48:19;;;;;;;3.17;0.52;;;;;;;3.44;87.34;102234.66;5069092;28;20323;-69
2022/10/20 06:50:45;;;;;;;5.22;0.60;;;;;;;3.52;87.31;102235.31;5069307;28;20047;-69
2022/10/20 06:53:11;;;;;;;1.20;0.60;;;;;;;3.61;86.93;102232.41;5070553;28;20028;-69
2022/10/20 06:55:36;;;;;;;7.38;0.75;;;;;;;3.63;86.07;102235.91;5071017;28;20035;-69
2022/10/20 06:58:02;;;;;;;1.67;0.40;;;;;;;3.69;85.94;102234.84;5076330;28;20415;-68
2022/10/20 07:00:28;;;;;;;1.30;0.30;;;;;;;3.76;85.62;102241.75;5092795;28;20130;-68
2022/10/20 07:02:53;;;;;;;1.88;0.55;;;;;;;3.92;85.47;102238.63;5111234;28;20115;-69
2022/10/20 07:05:20;;;;;;;3.83;0.73;;;;;;;4.11;84.94;102236.28;5092900;28;20442;-70
2022/10/20 07:07:46;;;;;;;2.33;0.50;;;;;;;4.12;84.62;102234.50;5111290;28;20500;-69
2022/10/20 07:10:12;;;;;;;3.83;0.63;;;;;;;4.15;84.08;102231.72;5111208;28;20054;-68
2022/10/20 07:12:37;;;;;;;5.05;0.63;;;;;;;4.19;83.86;102234.25;5092357;28;20086;-68
2022/10/20 07:15:05;;;;;;;1.83;0.40;;;;;;;4.10;84.57;102239.00;5110436;28;20395;-69
2022/10/20 07:17:30;;;;;;;2.58;0.25;;;;;;;4.21;84.17;102235.09;5092344;28;20023;-68
2022/10/20 07:19:56;;;;;;;2.45;0.32;;;;;;;4.59;83.06;102242.81;5111382;28;20032;-70
2022/10/20 07:22:22;;;;;;;4.88;0.60;;;;;;;4.32;83.92;102237.41;5092306;28;20107;-69
2022/10/20 07:24:48;;;;;;;1.10;0.40;;;;;;;4.33;84.34;102233.84;5111098;28;20039;-69
2022/10/20 07:27:13;;;;;;;1.33;0.52;;;;;;;4.26;84.79;102232.28;5111203;28;20576;-69
2022/10/20 07:29:39;;;;;;;2.80;0.60;;;;;;;4.27;85.08;102233.16;5092671;28;20110;-69
2022/10/20 07:32:04;;;;;;;5.75;1.55;;;;;;;4.34;85.10;102227.59;5093129;28;20102;-68
2022/10/20 07:34:30;;;;;;;2.58;0.47;;;;;;;4.47;84.82;102231.63;5114833;28;20219;-69
2022/10/20 07:36:56;;;;;;;1.73;0.40;;;;;;;4.47;84.46;102236.06;5114724;28;20063;-68
2022/10/20 07:39:22;;;;;;;5.18;0.60;;;;;;;4.64;84.58;102243.53;5096147;28;20032;-68
2022/10/20 07:41:48;;;;;;;1.88;0.45;;;;;;;5.08;83.15;102234.97;5115063;28;20088;-69
2022/10/20 07:44:15;;;;;;;2.35;0.73;;;;;;;4.97;82.84;102242.44;5114880;28;20035;-68
2022/10/20 07:46:41;;;;;;;3.90;0.73;;;;;;;4.71;83.80;102247.75;5114906;28;20503;-69
2022/10/20 07:49:06;;;;;;;3.78;0.60;;;;;;;4.75;83.93;102260.06;5114311;28;20027;-68
2022/10/20 07:51:33;;;;;;;1.67;0.43;;;;;;;4.74;84.35;102255.66;5114795;28;20528;-69
2022/10/20 07:54:02;;;;;;;1.30;0.30;;;;;;;4.80;84.55;102260.78;5115376;28;20032;-68
2022/10/20 07:56:31;;;;;;;0.57;0.40;;;;;;;4.91;83.97;102253.31;5096654;28;20035;-69
2022/10/20 07:58:57;;;;;;;0.90;0.50;;;;;;;4.99;83.63;102255.69;5114373;28;20052;-71
2022/10/20 08:01:23;;;;;;;3.80;0.63;;;;;;;4.95;84.23;102254.94;5096294;28;20063;-69
2022/10/20 08:03:48;;;;;;;0.93;0.30;;;;;;;5.08;83.67;102250.09;5095988;28;20042;-68
2022/10/20 08:06:15;;;;;;;1.92;0.40;;;;;;;5.14;83.39;102249.88;5114805;28;20028;-68
2022/10/20 08:08:41;;;;;;;2.53;0.30;;;;;;;5.14;83.12;102255.19;5114532;28;20035;-67
2022/10/20 08:11:07;;;;;;;2.13;0.50;;;;;;;5.08;83.71;102256.28;5096143;28;20032;-68
2022/10/20 08:13:33;;;;;;;1.98;0.70;;;;;;;5.19;82.91;102253.25;5114631;28;20032;-68
2022/10/20 08:15:59;;;;;;;2.45;0.40;;;;;;;5.18;82.63;102255.97;5114254;28;20031;-69
2022/10/20 08:18:25;;;;;;;0.60;0.38;;;;;;;5.20;82.16;102254.97;5114966;28;20063;-69
2022/10/20 08:20:50;;;;;;;2.15;0.43;;;;;;;5.31;81.69;102257.28;5114054;28;20130;-69
2022/10/20 08:23:16;;;;;;;5.32;1.00;;;;;;;5.32;81.73;102248.34;5114246;28;20051;-67
2022/10/20 08:25:42;;;;;;;1.73;0.32;;;;;;;5.43;81.60;102267.53;5095954;28;20442;-68
2022/10/20 08:28:08;;;;;;;1.38;0.30;;;;;;;5.47;81.25;102263.84;5096436;28;20066;-68
2022/10/20 08:30:35;;;;;;;2.47;1.35;;;;;;;5.52;81.09;102245.84;5114767;28;20023;-68
2022/10/20 08:33:00;;;;;;;4.68;3.10;;;;;;;5.59;80.88;102252.75;5095895;28;20023;-68
2022/10/20 08:35:26;;;;;;;5.47;2.35;;;;;;;5.56;81.02;102247.50;5114060;28;20406;-68
2022/10/20 08:37:52;;;;;;;3.22;0.90;;;;;;;5.77;80.26;102255.66;5113984;28;20444;-67
2022/10/20 08:40:28;;;;;;;2.42;0.80;;;;;;;5.78;79.96;102252.94;5095661;28;20027;-68
2022/10/20 08:42:54;;;;;;;2.95;0.77;;;;;;;5.90;80.37;102257.00;5095652;28;20053;-68
2022/10/20 08:45:23;;;;;;;2.70;0.65;;;;;;;5.95;79.66;102260.38;5113489;28;20034;-68
2022/10/20 08:47:52;;;;;;;2.00;0.60;;;;;;;5.96;79.88;102251.44;5114292;28;20031;-68
2022/10/20 08:50:20;;;;;;;2.90;1.33;;;;;;;5.93;79.87;102246.22;5095683;28;20027;-69
2022/10/20 08:52:50;;;;;;;2.20;1.33;;;;;;;6.04;79.18;102243.97;5114818;28;20476;-68
2022/10/20 08:55:25;;;;;;;1.85;1.23;;;;;;;6.16;78.76;102243.53;5114172;28;20051;-69
2022/10/20 08:57:54;;;;;;;2.40;0.75;;;;;;;6.52;77.47;102237.69;5112769;28;20122;-69
2022/10/20 09:00:22;;;;;;;1.67;0.70;;;;;;;7.60;73.44;102245.63;5094723;28;20043;-73
2022/10/20 09:02:49;;;;;;;2.17;0.88;;;;;;;8.28;70.60;102236.25;5094354;28;20145;-72
2022/10/20 09:05:25;;;;;;;2.50;1.40;;;;;;;8.43;70.47;102240.94;5112985;28;20037;-70
2022/10/20 09:07:53;;;;;;;3.65;0.90;;;;;;;8.32;69.41;102235.16;5094660;28;20042;-70
2022/10/20 09:10:24;;;;;;;3.08;1.00;;;;;;;8.73;68.50;102228.72;5112996;28;20043;-71
2022/10/20 09:12:51;;;;;;;8.98;1.42;;;;;;;8.64;67.42;102229.16;5113103;28;20141;-70
2022/10/20 09:15:18;;;;;;;3.15;0.82;;;;;;;8.74;67.86;102227.78;5112315;28;20031;-69
2022/10/20 09:17:53;;;;;;;1.33;0.60;;;;;;;9.39;65.90;102227.19;5094540;28;20039;-69
2022/10/20 09:20:22;;;;;;;2.58;0.80;;;;;;;9.07;66.96;102221.69;5094870;28;20032;-69
2022/10/20 09:22:48;;;;;;;2.63;0.50;;;;;;;9.78;64.74;102226.91;5095124;28;20345;-68
2022/10/20 09:25:24;;;;;;;3.13;0.70;;;;;;;9.95;63.95;102227.75;5094280;28;20114;-70
2022/10/20 09:27:55;;;;;;;1.23;0.50;;;;;;;10.36;61.41;102221.94;5094068;28;20472;-68
2022/10/20 09:30:32;;;;;;;2.17;0.40;;;;;;;9.53;63.79;102230.88;5094554;28;20027;-68
2022/10/20 09:32:58;;;;;;;0.98;0.65;;;;;;;9.10;64.63;102232.25;5112582;28;20043;-69
2022/10/20 09:35:35;;;;;;;5.32;2.65;;;;;;;9.67;64.44;102229.31;5112377;28;20605;-68
2022/10/20 09:38:21;;;;;;;1.60;0.50;;;;;;;10.00;63.81;102223.94;5111958;28;20118;-68
2022/10/20 09:41:06;;;;;;;4.65;1.17;;;;;;;9.15;64.63;102230.19;5094315;28;20051;-67
2022/10/20 09:43:33;;;;;;;3.85;0.85;;;;;;;9.35;64.53;102221.97;5111885;28;20023;-69
2022/10/20 09:46:04;;;;;;;2.83;1.15;;;;;;;10.23;61.63;102226.25;5111442;28;20024;-68
2022/10/20 09:48:48;;;;;;;1.88;0.98;;;;;;;10.65;60.84;102227.47;5111938;28;20030;-67
2022/10/20 09:51:25;;;;;;;3.20;1.20;;;;;;;9.76;62.40;102227.00;5092932;28;20044;-67
2022/10/20 09:54:02;;;;;;;1.45;0.60;;;;;;;10.05;62.68;102225.41;5112076;28;20038;-69
2022/10/20 09:56:34;;;;;;;5.88;1.40;;;;;;;10.13;62.31;102220.50;5110615;28;20508;-68
2022/10/20 09:59:02;;;;;;;4.85;3.58;;;;;;;9.88;62.78;102218.25;5111107;28;20075;-68
2022/10/20 10:01:27;;;;;;;4.35;1.42;;;;;;;9.65;63.50;102213.28;5111666;28;20028;-69
2022/10/20 10:04:00;;;;;;;2.88;0.63;;;;;;;10.33;62.70;102215.84;5093264;28;20032;-68
2022/10/20 10:06:43;;;;;;;2.38;1.10;;;;;;;9.89;63.24;102206.56;5093422;28;20148;-68
2022/10/20 10:09:36;;;;;;;1.55;0.50;;;;;;;10.16;61.70;102203.31;5092754;28;20028;-67
2022/10/20 10:12:13;;;;;;;4.25;0.85;;;;;;;9.74;61.82;102202.03;5111432;28;20027;-67
2022/10/20 10:14:51;;;;;;;2.63;0.70;;;;;;;9.98;62.97;102212.41;5093827;28;20030;-67
2022/10/20 10:17:40;;;;;;;4.10;1.30;;;;;;;10.08;62.28;102205.59;5111220;28;20468;-70
2022/10/20 10:20:28;;;;;;;8.18;1.23;;;;;;;10.50;61.04;102199.63;5092871;28;20032;-68
2022/10/20 10:23:15;;;;;;;2.67;0.80;;;;;;;10.28;61.41;102202.69;5093331;28;20377;-69
2022/10/20 10:25:40;;;;;;;1.70;0.65;;;;;;;10.24;60.76;102203.78;5111904;28;20479;-67
2022/10/20 10:28:25;;;;;;;1.48;1.35;;;;;;;10.31;60.65;102202.50;5093325;28;20034;-68
2022/10/20 10:31:08;;;;;;;1.77;1.02;;;;;;;9.88;61.72;102215.56;5092933;28;20110;-68
2022/10/20 10:33:34;;;;;;;0.73;0.47;;;;;;;9.38;62.90;102214.72;5093160;28;20046;-68
2022/10/20 10:36:12;;;;;;;3.65;1.42;;;;;;;9.36;63.19;102212.09;5093564;28;20487;-69
2022/10/20 10:38:38;;;;;;;1.15;0.80;;;;;;;9.20;63.93;102214.72;5093259;28;20028;-68
2022/10/20 10:41:41;;;;;;;2.65;0.70;;;;;;;9.95;61.79;102217.00;5093047;28;20038;-67
2022/10/20 10:44:13;;;;;;;2.85;0.93;;;;;;;10.03;61.04;102221.06;5110994;28;20467;-67
2022/10/20 10:46:51;;;;;;;1.02;0.50;;;;;;;9.98;62.05;102218.66;5111203;28;20024;-67
2022/10/20 10:49:52;;;;;;;4.00;0.70;;;;;;;9.67;61.26;102206.00;5093104;28;20034;-67
2022/10/20 10:52:18;;;;;;;2.65;1.10;;;;;;;9.71;62.50;102207.56;5039550;28;20540;-67
2022/10/20 10:54:46;;;;;;;0.85;0.73;;;;;;;9.64;62.84;102195.41;5092717;28;20197;-68
2022/10/20 10:57:39;;;;;;;3.83;0.65;;;;;;;9.26;63.62;102200.13;5092435;28;20544;-69
2022/10/20 11:00:21;;;;;;;1.48;0.65;;;;;;;9.69;62.94;102192.47;5091866;28;20158;-68
2022/10/20 11:02:55;;;;;;;3.80;0.45;;;;;;;9.37;63.07;102203.09;5093155;28;20031;-68
2022/10/20 11:05:21;;;;;;;3.38;0.60;;;;;;;9.52;63.11;102196.06;5111084;28;20023;-67
2022/10/20 11:08:05;;;;;;;2.00;0.70;;;;;;;9.33;63.59;102191.66;5095243;28;20063;-68
2022/10/20 11:10:45;;;;;;;0.80;0.40;;;;;;;9.14;64.22;102195.38;5096875;28;20069;-67
2022/10/20 11:13:23;;;;;;;1.40;0.73;;;;;;;8.93;64.30;102208.09;5115271;28;20028;-68
2022/10/20 11:16:11;;;;;;;5.88;0.45;;;;;;;9.16;64.33;102197.03;5115279;28;20107;-67
2022/10/20 11:18:58;;;;;;;0.65;0.40;;;;;;;9.04;62.82;102197.66;5115100;28;20042;-68
2022/10/20 11:21:45;;;;;;;1.23;0.20;;;;;;;9.09;63.68;102187.59;5115910;28;20066;-66
2022/10/20 11:25:01;;;;;;;0.52;0.20;;;;;;;8.81;64.52;102187.22;5115416;28;20027;-67
2022/10/20 11:27:33;;;;;;;4.38;0.85;;;;;;;8.95;64.72;102182.03;4996112;28;20038;-67
2022/10/20 11:30:18;;;;;;;1.58;0.20;;;;;;;9.01;63.41;102184.41;5090169;28;20046;-67
2022/10/20 11:33:17;;;;;;;0.75;0.32;;;;;;;9.07;63.57;102197.53;5114809;28;20031;-67
2022/10/20 11:36:02;;;;;;;2.65;0.20;;;;;;;8.94;65.29;102199.09;5114406;28;20027;-67
2022/10/20 11:38:43;;;;;;;4.38;0.60;;;;;;;9.01;64.43;102189.78;5096100;28;20069;-67
2022/10/20 11:41:17;;;;;;;1.45;0.28;;;;;;;9.02;64.14;102187.00;5114568;28;20047;-67
2022/10/20 11:44:01;;;;;;;1.40;0.40;;;;;;;8.74;65.17;102184.88;5115527;28;20020;-67
2022/10/20 11:46:39;;;;;;;1.92;0.28;;;;;;;8.73;65.06;102175.09;5096961;28;20032;-66
2022/10/20 11:49:06;;;;;;;0.52;0.38;;;;;;;8.76;64.58;102178.56;5114761;28;20032;-68